sensor_id;sensor_type;location;lat;lon;timestamp;temperature;humidity
66096;SHT31;53861;53.422;14.530;2022-12-29T00:01:08;6.59;95.43
66096;SHT31;53861;53.422;14.530;2022-12-29T00:03:35;6.56;95.73
66096;SHT31;53861;53.422;14.530;2022-12-29T00:06:04;6.63;95.35
66096;SHT31;53861;53.422;14.530;2022-12-29T00:08:31;6.59;95.39
66096;SHT31;53861;53.422;14.530;2022-12-29T00:11:05;6.61;95.47
66096;SHT31;53861;53.422;14.530;2022-12-29T00:13:33;6.61;95.48
66096;SHT31;53861;53.422;14.530;2022-12-29T00:16:17;6.66;94.72
66096;SHT31;53861;53.422;14.530;2022-12-29T00:18:44;6.66;95.01
66096;SHT31;53861;53.422;14.530;2022-12-29T00:21:14;6.66;94.82
66096;SHT31;53861;53.422;14.530;2022-12-29T00:23:58;6.69;94.48
66096;SHT31;53861;53.422;14.530;2022-12-29T00:26:43;6.75;94.12
66096;SHT31;53861;53.422;14.530;2022-12-29T00:29:27;6.76;94.61
66096;SHT31;53861;53.422;14.530;2022-12-29T00:32:11;6.72;94.39
66096;SHT31;53861;53.422;14.530;2022-12-29T00:34:56;6.71;94.25
66096;SHT31;53861;53.422;14.530;2022-12-29T00:37:41;6.82;93.98
66096;SHT31;53861;53.422;14.530;2022-12-29T00:40:26;6.82;93.97
66096;SHT31;53861;53.422;14.530;2022-12-29T00:43:13;6.87;93.79
66096;SHT31;53861;53.422;14.530;2022-12-29T00:45:57;6.90;93.62
66096;SHT31;53861;53.422;14.530;2022-12-29T00:48:24;6.93;93.26
66096;SHT31;53861;53.422;14.530;2022-12-29T00:51:08;6.99;92.75
66096;SHT31;53861;53.422;14.530;2022-12-29T00:53:37;6.94;93.26
66096;SHT31;53861;53.422;14.530;2022-12-29T00:56:04;6.96;93.02
66096;SHT31;53861;53.422;14.530;2022-12-29T00:58:31;6.99;92.99
66096;SHT31;53861;53.422;14.530;2022-12-29T01:01:01;7.01;93.25
66096;SHT31;53861;53.422;14.530;2022-12-29T01:03:28;6.96;93.34
66096;SHT31;53861;53.422;14.530;2022-12-29T01:05:55;6.97;93.21
66096;SHT31;53861;53.422;14.530;2022-12-29T01:08:22;6.94;93.49
66096;SHT31;53861;53.422;14.530;2022-12-29T01:10:58;6.96;93.10
66096;SHT31;53861;53.422;14.530;2022-12-29T01:13:24;6.96;93.62
66096;SHT31;53861;53.422;14.530;2022-12-29T01:15:51;7.01;93.12
66096;SHT31;53861;53.422;14.530;2022-12-29T01:18:19;6.93;93.55
66096;SHT31;53861;53.422;14.530;2022-12-29T01:20:46;6.97;93.54
66096;SHT31;53861;53.422;14.530;2022-12-29T01:23:13;7.00;93.21
66096;SHT31;53861;53.422;14.530;2022-12-29T01:25:40;6.99;93.60
66096;SHT31;53861;53.422;14.530;2022-12-29T01:28:08;6.89;93.57
66096;SHT31;53861;53.422;14.530;2022-12-29T01:30:35;6.92;93.54
66096;SHT31;53861;53.422;14.530;2022-12-29T01:33:02;6.93;93.34
66096;SHT31;53861;53.422;14.530;2022-12-29T01:35:29;6.89;93.73
66096;SHT31;53861;53.422;14.530;2022-12-29T01:37:57;6.96;93.79
66096;SHT31;53861;53.422;14.530;2022-12-29T01:40:24;6.87;94.35
66096;SHT31;53861;53.422;14.530;2022-12-29T01:42:53;6.93;93.75
66096;SHT31;53861;53.422;14.530;2022-12-29T01:45:21;6.96;93.74
66096;SHT31;53861;53.422;14.530;2022-12-29T01:47:48;7.03;93.49
66096;SHT31;53861;53.422;14.530;2022-12-29T01:50:17;7.03;93.63
66096;SHT31;53861;53.422;14.530;2022-12-29T01:52:48;7.03;93.88
66096;SHT31;53861;53.422;14.530;2022-12-29T01:55:16;7.06;94.03
66096;SHT31;53861;53.422;14.530;2022-12-29T01:57:45;7.11;93.45
66096;SHT31;53861;53.422;14.530;2022-12-29T02:00:13;7.07;93.96
66096;SHT31;53861;53.422;14.530;2022-12-29T02:02:42;7.17;93.93
66096;SHT31;53861;53.422;14.530;2022-12-29T02:05:13;7.13;93.81
66096;SHT31;53861;53.422;14.530;2022-12-29T02:07:41;7.13;93.98
66096;SHT31;53861;53.422;14.530;2022-12-29T02:10:08;7.11;93.96
66096;SHT31;53861;53.422;14.530;2022-12-29T02:12:35;7.08;94.50
66096;SHT31;53861;53.422;14.530;2022-12-29T02:15:02;7.13;94.28
66096;SHT31;53861;53.422;14.530;2022-12-29T02:17:38;7.08;94.45
66096;SHT31;53861;53.422;14.530;2022-12-29T02:20:36;7.10;94.40
66096;SHT31;53861;53.422;14.530;2022-12-29T02:23:13;7.11;94.48
66096;SHT31;53861;53.422;14.530;2022-12-29T02:25:52;7.07;94.50
66096;SHT31;53861;53.422;14.530;2022-12-29T02:28:40;7.11;94.16
66096;SHT31;53861;53.422;14.530;2022-12-29T02:31:13;7.11;94.22
66096;SHT31;53861;53.422;14.530;2022-12-29T02:33:47;7.14;94.26
66096;SHT31;53861;53.422;14.530;2022-12-29T02:36:21;7.07;94.71
66096;SHT31;53861;53.422;14.530;2022-12-29T02:38:55;7.08;94.42
66096;SHT31;53861;53.422;14.530;2022-12-29T02:41:24;7.15;94.16
66096;SHT31;53861;53.422;14.530;2022-12-29T02:43:56;7.14;94.38
66096;SHT31;53861;53.422;14.530;2022-12-29T02:46:28;7.13;94.41
66096;SHT31;53861;53.422;14.530;2022-12-29T02:49:01;7.15;94.27
66096;SHT31;53861;53.422;14.530;2022-12-29T02:51:31;7.14;94.34
66096;SHT31;53861;53.422;14.530;2022-12-29T02:53:59;7.21;94.18
66096;SHT31;53861;53.422;14.530;2022-12-29T02:56:43;7.20;94.13
66096;SHT31;53861;53.422;14.530;2022-12-29T02:59:10;7.20;93.84
66096;SHT31;53861;53.422;14.530;2022-12-29T03:01:48;7.18;94.17
66096;SHT31;53861;53.422;14.530;2022-12-29T03:04:31;7.17;94.42
66096;SHT31;53861;53.422;14.530;2022-12-29T03:07:01;7.21;94.29
66096;SHT31;53861;53.422;14.530;2022-12-29T03:09:35;7.21;94.07
66096;SHT31;53861;53.422;14.530;2022-12-29T03:12:07;7.23;94.12
66096;SHT31;53861;53.422;14.530;2022-12-29T03:14:39;7.30;93.87
66096;SHT31;53861;53.422;14.530;2022-12-29T03:17:35;7.25;94.03
66096;SHT31;53861;53.422;14.530;2022-12-29T03:20:06;7.21;94.04
66096;SHT31;53861;53.422;14.530;2022-12-29T03:22:35;7.27;94.02
66096;SHT31;53861;53.422;14.530;2022-12-29T03:25:05;7.30;93.81
66096;SHT31;53861;53.422;14.530;2022-12-29T03:27:36;7.31;93.99
66096;SHT31;53861;53.422;14.530;2022-12-29T03:30:06;7.35;93.69
66096;SHT31;53861;53.422;14.530;2022-12-29T03:32:37;7.37;93.73
66096;SHT31;53861;53.422;14.530;2022-12-29T03:35:05;7.40;93.52
66096;SHT31;53861;53.422;14.530;2022-12-29T03:37:35;7.43;93.43
66096;SHT31;53861;53.422;14.530;2022-12-29T03:40:03;7.44;93.07
66096;SHT31;53861;53.422;14.530;2022-12-29T03:42:31;7.43;93.54
66096;SHT31;53861;53.422;14.530;2022-12-29T03:44:59;7.38;93.58
66096;SHT31;53861;53.422;14.530;2022-12-29T03:47:26;7.40;93.55
66096;SHT31;53861;53.422;14.530;2022-12-29T03:49:54;7.45;93.17
66096;SHT31;53861;53.422;14.530;2022-12-29T03:52:21;7.45;93.19
66096;SHT31;53861;53.422;14.530;2022-12-29T03:54:48;7.44;93.39
66096;SHT31;53861;53.422;14.530;2022-12-29T03:57:15;7.50;93.26
66096;SHT31;53861;53.422;14.530;2022-12-29T03:59:42;7.48;93.00
66096;SHT31;53861;53.422;14.530;2022-12-29T04:02:09;7.40;93.05
66096;SHT31;53861;53.422;14.530;2022-12-29T04:04:36;7.35;92.92
66096;SHT31;53861;53.422;14.530;2022-12-29T04:07:04;7.28;93.43
66096;SHT31;53861;53.422;14.530;2022-12-29T04:09:31;7.30;93.02
66096;SHT31;53861;53.422;14.530;2022-12-29T04:11:58;7.23;93.64
66096;SHT31;53861;53.422;14.530;2022-12-29T04:14:25;7.18;93.29
66096;SHT31;53861;53.422;14.530;2022-12-29T04:16:52;7.17;93.42
66096;SHT31;53861;53.422;14.530;2022-12-29T04:19:19;7.18;93.24
66096;SHT31;53861;53.422;14.530;2022-12-29T04:21:46;7.15;93.36
66096;SHT31;53861;53.422;14.530;2022-12-29T04:24:14;7.23;93.22
66096;SHT31;53861;53.422;14.530;2022-12-29T04:26:41;7.28;92.97
66096;SHT31;53861;53.422;14.530;2022-12-29T04:29:08;7.31;93.04
66096;SHT31;53861;53.422;14.530;2022-12-29T04:31:35;7.37;92.81
66096;SHT31;53861;53.422;14.530;2022-12-29T04:34:02;7.34;93.15
66096;SHT31;53861;53.422;14.530;2022-12-29T04:36:29;7.34;92.76
66096;SHT31;53861;53.422;14.530;2022-12-29T04:38:56;7.38;92.60
66096;SHT31;53861;53.422;14.530;2022-12-29T04:41:24;7.37;92.85
66096;SHT31;53861;53.422;14.530;2022-12-29T04:43:51;7.38;92.69
66096;SHT31;53861;53.422;14.530;2022-12-29T04:46:18;7.41;92.56
66096;SHT31;53861;53.422;14.530;2022-12-29T04:48:45;7.51;92.25
66096;SHT31;53861;53.422;14.530;2022-12-29T04:51:12;7.61;91.66
66096;SHT31;53861;53.422;14.530;2022-12-29T04:53:39;7.58;91.83
66096;SHT31;53861;53.422;14.530;2022-12-29T04:56:06;7.62;91.53
66096;SHT31;53861;53.422;14.530;2022-12-29T04:58:36;7.61;91.51
66096;SHT31;53861;53.422;14.530;2022-12-29T05:01:03;7.62;91.25
66096;SHT31;53861;53.422;14.530;2022-12-29T05:03:30;7.58;91.57
66096;SHT31;53861;53.422;14.530;2022-12-29T05:05:57;7.67;91.09
66096;SHT31;53861;53.422;14.530;2022-12-29T05:08:24;7.72;90.91
66096;SHT31;53861;53.422;14.530;2022-12-29T05:10:51;7.69;90.74
66096;SHT31;53861;53.422;14.530;2022-12-29T05:13:18;7.64;91.34
66096;SHT31;53861;53.422;14.530;2022-12-29T05:15:47;7.78;90.55
66096;SHT31;53861;53.422;14.530;2022-12-29T05:18:14;7.75;90.34
66096;SHT31;53861;53.422;14.530;2022-12-29T05:20:41;7.61;90.89
66096;SHT31;53861;53.422;14.530;2022-12-29T05:23:08;7.43;91.65
66096;SHT31;53861;53.422;14.530;2022-12-29T05:25:35;7.45;91.45
66096;SHT31;53861;53.422;14.530;2022-12-29T05:28:02;7.35;91.77
66096;SHT31;53861;53.422;14.530;2022-12-29T05:30:29;7.32;92.18
66096;SHT31;53861;53.422;14.530;2022-12-29T05:32:57;7.34;92.05
66096;SHT31;53861;53.422;14.530;2022-12-29T05:35:24;7.31;92.04
66096;SHT31;53861;53.422;14.530;2022-12-29T05:37:51;7.32;91.80
66096;SHT31;53861;53.422;14.530;2022-12-29T05:40:18;7.23;92.45
66096;SHT31;53861;53.422;14.530;2022-12-29T05:42:45;7.18;92.39
66096;SHT31;53861;53.422;14.530;2022-12-29T05:45:12;7.20;91.99
66096;SHT31;53861;53.422;14.530;2022-12-29T05:47:39;7.31;91.54
66096;SHT31;53861;53.422;14.530;2022-12-29T05:50:07;7.24;91.69
66096;SHT31;53861;53.422;14.530;2022-12-29T05:52:34;7.34;91.58
66096;SHT31;53861;53.422;14.530;2022-12-29T05:55:01;7.24;92.04
66096;SHT31;53861;53.422;14.530;2022-12-29T05:57:28;7.18;92.30
66096;SHT31;53861;53.422;14.530;2022-12-29T05:59:55;7.14;91.84
66096;SHT31;53861;53.422;14.530;2022-12-29T06:02:22;7.20;91.68
66096;SHT31;53861;53.422;14.530;2022-12-29T06:04:49;7.14;91.89
66096;SHT31;53861;53.422;14.530;2022-12-29T06:07:17;7.14;91.72
66096;SHT31;53861;53.422;14.530;2022-12-29T06:09:44;7.08;91.78
66096;SHT31;53861;53.422;14.530;2022-12-29T06:12:11;7.07;91.67
66096;SHT31;53861;53.422;14.530;2022-12-29T06:14:38;7.01;92.16
66096;SHT31;53861;53.422;14.530;2022-12-29T06:17:05;7.06;91.67
66096;SHT31;53861;53.422;14.530;2022-12-29T06:19:32;7.00;91.77
66096;SHT31;53861;53.422;14.530;2022-12-29T06:21:59;6.93;91.92
66096;SHT31;53861;53.422;14.530;2022-12-29T06:24:28;6.87;91.97
66096;SHT31;53861;53.422;14.530;2022-12-29T06:26:55;6.93;92.10
66096;SHT31;53861;53.422;14.530;2022-12-29T06:29:22;6.93;92.18
66096;SHT31;53861;53.422;14.530;2022-12-29T06:31:49;6.92;92.38
66096;SHT31;53861;53.422;14.530;2022-12-29T06:34:16;7.06;92.02
66096;SHT31;53861;53.422;14.530;2022-12-29T06:36:43;7.11;91.81
66096;SHT31;53861;53.422;14.530;2022-12-29T06:39:10;7.20;91.67
66096;SHT31;53861;53.422;14.530;2022-12-29T06:41:38;7.34;91.13
66096;SHT31;53861;53.422;14.530;2022-12-29T06:44:05;7.38;91.05
66096;SHT31;53861;53.422;14.530;2022-12-29T06:46:32;7.40;91.31
66096;SHT31;53861;53.422;14.530;2022-12-29T06:48:59;7.47;91.04
66096;SHT31;53861;53.422;14.530;2022-12-29T06:51:26;7.55;90.80
66096;SHT31;53861;53.422;14.530;2022-12-29T06:53:53;7.67;90.00
66096;SHT31;53861;53.422;14.530;2022-12-29T06:56:20;7.69;89.97
66096;SHT31;53861;53.422;14.530;2022-12-29T06:58:49;7.79;89.81
66096;SHT31;53861;53.422;14.530;2022-12-29T07:04:18;7.95;89.68
66096;SHT31;53861;53.422;14.530;2022-12-29T07:06:45;8.02;89.41
66096;SHT31;53861;53.422;14.530;2022-12-29T07:09:12;8.03;89.39
66096;SHT31;53861;53.422;14.530;2022-12-29T07:11:39;8.09;89.17
66096;SHT31;53861;53.422;14.530;2022-12-29T07:14:09;8.14;88.93
66096;SHT31;53861;53.422;14.530;2022-12-29T07:16:37;8.12;89.03
66096;SHT31;53861;53.422;14.530;2022-12-29T07:19:04;8.26;88.95
66096;SHT31;53861;53.422;14.530;2022-12-29T07:21:31;8.34;89.25
66096;SHT31;53861;53.422;14.530;2022-12-29T07:23:58;8.22;90.56
66096;SHT31;53861;53.422;14.530;2022-12-29T07:26:25;8.13;91.47
66096;SHT31;53861;53.422;14.530;2022-12-29T07:28:52;8.13;91.20
66096;SHT31;53861;53.422;14.530;2022-12-29T07:31:21;8.16;91.36
66096;SHT31;53861;53.422;14.530;2022-12-29T07:33:48;8.13;91.51
66096;SHT31;53861;53.422;14.530;2022-12-29T07:36:15;8.19;90.93
66096;SHT31;53861;53.422;14.530;2022-12-29T07:38:43;8.12;91.22
66096;SHT31;53861;53.422;14.530;2022-12-29T07:41:10;8.23;90.80
66096;SHT31;53861;53.422;14.530;2022-12-29T07:43:36;8.33;90.24
66096;SHT31;53861;53.422;14.530;2022-12-29T07:46:03;8.32;90.20
66096;SHT31;53861;53.422;14.530;2022-12-29T07:48:32;8.29;90.24
66096;SHT31;53861;53.422;14.530;2022-12-29T07:51:01;8.37;89.49
66096;SHT31;53861;53.422;14.530;2022-12-29T07:53:28;8.36;89.34
66096;SHT31;53861;53.422;14.530;2022-12-29T07:55:55;8.33;89.40
66096;SHT31;53861;53.422;14.530;2022-12-29T07:58:22;8.37;89.01
66096;SHT31;53861;53.422;14.530;2022-12-29T08:00:52;8.36;88.86
66096;SHT31;53861;53.422;14.530;2022-12-29T08:03:19;8.36;89.03
66096;SHT31;53861;53.422;14.530;2022-12-29T08:05:47;8.40;88.85
66096;SHT31;53861;53.422;14.530;2022-12-29T08:08:14;8.39;89.36
66096;SHT31;53861;53.422;14.530;2022-12-29T08:10:41;8.40;88.80
66096;SHT31;53861;53.422;14.530;2022-12-29T08:13:08;8.37;89.11
66096;SHT31;53861;53.422;14.530;2022-12-29T08:15:36;8.47;88.88
66096;SHT31;53861;53.422;14.530;2022-12-29T08:18:06;8.47;88.83
66096;SHT31;53861;53.422;14.530;2022-12-29T08:20:33;8.44;89.28
66096;SHT31;53861;53.422;14.530;2022-12-29T08:23:01;8.57;88.67
66096;SHT31;53861;53.422;14.530;2022-12-29T08:25:28;8.64;88.38
66096;SHT31;53861;53.422;14.530;2022-12-29T08:27:55;8.75;88.33
66096;SHT31;53861;53.422;14.530;2022-12-29T08:30:22;8.77;88.27
66096;SHT31;53861;53.422;14.530;2022-12-29T08:32:49;8.75;88.81
66096;SHT31;53861;53.422;14.530;2022-12-29T08:35:16;8.88;87.91
66096;SHT31;53861;53.422;14.530;2022-12-29T08:37:43;9.02;87.97
66096;SHT31;53861;53.422;14.530;2022-12-29T08:40:12;9.10;88.16
66096;SHT31;53861;53.422;14.530;2022-12-29T08:42:39;9.12;87.82
66096;SHT31;53861;53.422;14.530;2022-12-29T08:45:07;9.21;87.91
66096;SHT31;53861;53.422;14.530;2022-12-29T08:47:34;9.33;86.81
66096;SHT31;53861;53.422;14.530;2022-12-29T08:50:01;9.53;86.00
66096;SHT31;53861;53.422;14.530;2022-12-29T08:52:28;9.67;85.97
66096;SHT31;53861;53.422;14.530;2022-12-29T08:54:55;9.83;85.11
66096;SHT31;53861;53.422;14.530;2022-12-29T08:57:23;9.82;85.25
66096;SHT31;53861;53.422;14.530;2022-12-29T08:59:50;9.66;85.66
66096;SHT31;53861;53.422;14.530;2022-12-29T09:02:17;9.82;85.31
66096;SHT31;53861;53.422;14.530;2022-12-29T09:04:44;9.84;85.23
66096;SHT31;53861;53.422;14.530;2022-12-29T09:07:11;9.89;84.68
66096;SHT31;53861;53.422;14.530;2022-12-29T09:09:38;9.83;85.50
66096;SHT31;53861;53.422;14.530;2022-12-29T09:12:05;9.86;85.40
66096;SHT31;53861;53.422;14.530;2022-12-29T09:14:33;10.48;84.12
66096;SHT31;53861;53.422;14.530;2022-12-29T09:17:00;11.34;82.24
66096;SHT31;53861;53.422;14.530;2022-12-29T09:19:44;12.04;80.59
66096;SHT31;53861;53.422;14.530;2022-12-29T09:22:11;14.13;71.69
66096;SHT31;53861;53.422;14.530;2022-12-29T09:24:38;12.73;75.63
66096;SHT31;53861;53.422;14.530;2022-12-29T09:27:05;11.70;79.91
66096;SHT31;53861;53.422;14.530;2022-12-29T09:29:34;11.53;79.86
66096;SHT31;53861;53.422;14.530;2022-12-29T09:32:00;11.16;81.19
66096;SHT31;53861;53.422;14.530;2022-12-29T09:34:27;11.30;81.16
66096;SHT31;53861;53.422;14.530;2022-12-29T09:36:54;12.66;78.00
66096;SHT31;53861;53.422;14.530;2022-12-29T09:39:22;11.90;78.73
66096;SHT31;53861;53.422;14.530;2022-12-29T09:41:49;11.53;80.36
66096;SHT31;53861;53.422;14.530;2022-12-29T09:44:20;11.33;81.85
66096;SHT31;53861;53.422;14.530;2022-12-29T09:46:51;11.27;81.11
66096;SHT31;53861;53.422;14.530;2022-12-29T09:49:22;10.99;82.85
66096;SHT31;53861;53.422;14.530;2022-12-29T09:51:52;10.75;83.40
66096;SHT31;53861;53.422;14.530;2022-12-29T09:54:23;10.78;83.36
66096;SHT31;53861;53.422;14.530;2022-12-29T09:56:51;10.76;83.86
66096;SHT31;53861;53.422;14.530;2022-12-29T09:59:19;10.91;83.78
66096;SHT31;53861;53.422;14.530;2022-12-29T10:01:49;11.05;84.05
66096;SHT31;53861;53.422;14.530;2022-12-29T10:04:20;11.18;83.12
66096;SHT31;53861;53.422;14.530;2022-12-29T10:06:49;10.95;83.74
66096;SHT31;53861;53.422;14.530;2022-12-29T10:09:19;11.13;83.07
66096;SHT31;53861;53.422;14.530;2022-12-29T10:11:57;11.53;83.08
66096;SHT31;53861;53.422;14.530;2022-12-29T10:14:30;12.86;78.62
66096;SHT31;53861;53.422;14.530;2022-12-29T10:17:00;14.28;76.18
66096;SHT31;53861;53.422;14.530;2022-12-29T10:19:37;14.95;73.97
66096;SHT31;53861;53.422;14.530;2022-12-29T10:22:15;14.29;72.57
66096;SHT31;53861;53.422;14.530;2022-12-29T10:24:44;14.34;73.13
66096;SHT31;53861;53.422;14.530;2022-12-29T10:27:11;14.26;73.05
66096;SHT31;53861;53.422;14.530;2022-12-29T10:29:41;15.05;71.10
66096;SHT31;53861;53.422;14.530;2022-12-29T10:32:13;13.74;74.38
66096;SHT31;53861;53.422;14.530;2022-12-29T10:34:50;13.38;75.53
66096;SHT31;53861;53.422;14.530;2022-12-29T10:37:21;12.76;77.62
66096;SHT31;53861;53.422;14.530;2022-12-29T10:39:52;12.49;79.21
66096;SHT31;53861;53.422;14.530;2022-12-29T10:42:21;12.28;79.40
66096;SHT31;53861;53.422;14.530;2022-12-29T10:44:51;12.20;80.30
66096;SHT31;53861;53.422;14.530;2022-12-29T10:47:19;12.10;79.89
66096;SHT31;53861;53.422;14.530;2022-12-29T10:49:47;12.21;80.15
66096;SHT31;53861;53.422;14.530;2022-12-29T10:52:16;12.06;79.54
66096;SHT31;53861;53.422;14.530;2022-12-29T10:54:45;11.90;80.47
66096;SHT31;53861;53.422;14.530;2022-12-29T10:57:19;11.78;80.31
66096;SHT31;53861;53.422;14.530;2022-12-29T10:59:49;11.78;81.05
66096;SHT31;53861;53.422;14.530;2022-12-29T11:02:22;11.77;82.35
66096;SHT31;53861;53.422;14.530;2022-12-29T11:04:52;11.81;81.12
66096;SHT31;53861;53.422;14.530;2022-12-29T11:07:23;11.66;80.56
66096;SHT31;53861;53.422;14.530;2022-12-29T11:09:51;11.56;82.17
66096;SHT31;53861;53.422;14.530;2022-12-29T11:12:22;11.41;82.39
66096;SHT31;53861;53.422;14.530;2022-12-29T11:15:12;11.40;82.58
66096;SHT31;53861;53.422;14.530;2022-12-29T11:17:42;11.34;82.54
66096;SHT31;53861;53.422;14.530;2022-12-29T11:20:19;11.46;81.40
66096;SHT31;53861;53.422;14.530;2022-12-29T11:22:48;11.57;81.59
66096;SHT31;53861;53.422;14.530;2022-12-29T11:25:15;11.70;80.86
66096;SHT31;53861;53.422;14.530;2022-12-29T11:27:42;11.67;81.70
66096;SHT31;53861;53.422;14.530;2022-12-29T11:30:24;11.64;81.51
66096;SHT31;53861;53.422;14.530;2022-12-29T11:32:52;11.80;80.16
66096;SHT31;53861;53.422;14.530;2022-12-29T11:35:29;11.87;81.16
66096;SHT31;53861;53.422;14.530;2022-12-29T11:37:57;11.95;80.42
66096;SHT31;53861;53.422;14.530;2022-12-29T11:40:25;12.05;80.08
66096;SHT31;53861;53.422;14.530;2022-12-29T11:42:53;11.97;80.24
66096;SHT31;53861;53.422;14.530;2022-12-29T11:45:21;12.02;80.97
66096;SHT31;53861;53.422;14.530;2022-12-29T11:47:50;12.62;78.66
66096;SHT31;53861;53.422;14.530;2022-12-29T11:50:19;12.65;79.04
66096;SHT31;53861;53.422;14.530;2022-12-29T11:52:46;12.79;78.39
66096;SHT31;53861;53.422;14.530;2022-12-29T11:55:18;12.76;79.01
66096;SHT31;53861;53.422;14.530;2022-12-29T11:57:50;12.76;78.38
66096;SHT31;53861;53.422;14.530;2022-12-29T12:00:18;12.75;77.99
66096;SHT31;53861;53.422;14.530;2022-12-29T12:02:51;12.75;77.40
66096;SHT31;53861;53.422;14.530;2022-12-29T12:05:22;12.63;78.18
66096;SHT31;53861;53.422;14.530;2022-12-29T12:07:54;12.62;78.25
66096;SHT31;53861;53.422;14.530;2022-12-29T12:10:26;12.55;78.09
66096;SHT31;53861;53.422;14.530;2022-12-29T12:13:03;12.48;78.73
66096;SHT31;53861;53.422;14.530;2022-12-29T12:15:35;12.36;79.28
66096;SHT31;53861;53.422;14.530;2022-12-29T12:18:05;12.43;79.11
66096;SHT31;53861;53.422;14.530;2022-12-29T12:20:38;12.38;78.44
66096;SHT31;53861;53.422;14.530;2022-12-29T12:23:07;12.25;80.28
66096;SHT31;53861;53.422;14.530;2022-12-29T12:25:38;12.17;79.23
66096;SHT31;53861;53.422;14.530;2022-12-29T12:28:10;12.15;79.89
66096;SHT31;53861;53.422;14.530;2022-12-29T12:30:38;12.12;79.20
66096;SHT31;53861;53.422;14.530;2022-12-29T12:33:13;12.06;80.47
66096;SHT31;53861;53.422;14.530;2022-12-29T12:35:44;12.02;80.40
66096;SHT31;53861;53.422;14.530;2022-12-29T12:38:15;11.97;79.57
66096;SHT31;53861;53.422;14.530;2022-12-29T12:40:52;11.98;80.04
66096;SHT31;53861;53.422;14.530;2022-12-29T12:43:31;11.95;80.47
66096;SHT31;53861;53.422;14.530;2022-12-29T12:46:05;11.84;81.21
66096;SHT31;53861;53.422;14.530;2022-12-29T12:51:19;11.57;83.78
66096;SHT31;53861;53.422;14.530;2022-12-29T12:53:58;11.50;84.17
66096;SHT31;53861;53.422;14.530;2022-12-29T12:56:35;11.33;86.62
66096;SHT31;53861;53.422;14.530;2022-12-29T12:59:06;11.24;86.88
66096;SHT31;53861;53.422;14.530;2022-12-29T13:01:38;11.05;88.08
66096;SHT31;53861;53.422;14.530;2022-12-29T13:04:13;10.68;88.80
66096;SHT31;53861;53.422;14.530;2022-12-29T13:06:47;10.52;89.82
66096;SHT31;53861;53.422;14.530;2022-12-29T13:09:29;10.57;90.18
66096;SHT31;53861;53.422;14.530;2022-12-29T13:12:06;10.41;91.37
66096;SHT31;53861;53.422;14.530;2022-12-29T13:14:37;10.35;91.43
66096;SHT31;53861;53.422;14.530;2022-12-29T13:17:08;10.27;91.72
66096;SHT31;53861;53.422;14.530;2022-12-29T13:19:40;10.20;92.18
66096;SHT31;53861;53.422;14.530;2022-12-29T13:22:08;10.10;92.57
66096;SHT31;53861;53.422;14.530;2022-12-29T13:24:40;10.06;93.04
66096;SHT31;53861;53.422;14.530;2022-12-29T13:27:13;10.08;92.88
66096;SHT31;53861;53.422;14.530;2022-12-29T13:29:42;10.13;92.99
66096;SHT31;53861;53.422;14.530;2022-12-29T13:32:18;10.03;93.45
66096;SHT31;53861;53.422;14.530;2022-12-29T13:34:51;10.08;93.58
66096;SHT31;53861;53.422;14.530;2022-12-29T13:37:22;10.07;93.25
66096;SHT31;53861;53.422;14.530;2022-12-29T13:39:52;10.01;93.38
66096;SHT31;53861;53.422;14.530;2022-12-29T13:42:22;9.97;93.69
66096;SHT31;53861;53.422;14.530;2022-12-29T13:44:51;10.03;93.42
66096;SHT31;53861;53.422;14.530;2022-12-29T13:47:21;10.01;93.01
66096;SHT31;53861;53.422;14.530;2022-12-29T13:49:48;9.93;92.94
66096;SHT31;53861;53.422;14.530;2022-12-29T13:52:18;9.87;93.51
66096;SHT31;53861;53.422;14.530;2022-12-29T13:54:59;9.82;92.94
66096;SHT31;53861;53.422;14.530;2022-12-29T13:57:35;9.93;92.42
66096;SHT31;53861;53.422;14.530;2022-12-29T14:00:10;9.93;92.35
66096;SHT31;53861;53.422;14.530;2022-12-29T14:02:42;9.87;92.10
66096;SHT31;53861;53.422;14.530;2022-12-29T14:05:27;9.80;91.82
66096;SHT31;53861;53.422;14.530;2022-12-29T14:07:56;9.83;91.48
66096;SHT31;53861;53.422;14.530;2022-12-29T14:10:26;9.77;91.75
66096;SHT31;53861;53.422;14.530;2022-12-29T14:13:00;9.83;90.90
66096;SHT31;53861;53.422;14.530;2022-12-29T14:15:28;9.72;91.38
66096;SHT31;53861;53.422;14.530;2022-12-29T14:18:14;9.73;91.20
66096;SHT31;53861;53.422;14.530;2022-12-29T14:20:47;9.66;91.52
66096;SHT31;53861;53.422;14.530;2022-12-29T14:23:16;9.66;91.79
66096;SHT31;53861;53.422;14.530;2022-12-29T14:25:53;9.59;92.22
66096;SHT31;53861;53.422;14.530;2022-12-29T14:28:24;9.60;92.23
66096;SHT31;53861;53.422;14.530;2022-12-29T14:30:52;9.59;92.47
66096;SHT31;53861;53.422;14.530;2022-12-29T14:33:19;9.53;92.78
66096;SHT31;53861;53.422;14.530;2022-12-29T14:35:48;9.46;92.97
66096;SHT31;53861;53.422;14.530;2022-12-29T14:38:18;9.43;92.92
66096;SHT31;53861;53.422;14.530;2022-12-29T14:40:46;9.39;92.79
66096;SHT31;53861;53.422;14.530;2022-12-29T14:43:16;9.43;92.13
66096;SHT31;53861;53.422;14.530;2022-12-29T14:45:48;9.40;91.74
66096;SHT31;53861;53.422;14.530;2022-12-29T14:48:21;9.33;91.39
66096;SHT31;53861;53.422;14.530;2022-12-29T14:50:54;9.33;91.17
66096;SHT31;53861;53.422;14.530;2022-12-29T14:56:13;9.23;91.43
66096;SHT31;53861;53.422;14.530;2022-12-29T14:58:43;9.16;92.00
66096;SHT31;53861;53.422;14.530;2022-12-29T15:01:18;9.21;91.37
66096;SHT31;53861;53.422;14.530;2022-12-29T15:03:47;9.18;91.88
66096;SHT31;53861;53.422;14.530;2022-12-29T15:06:15;9.19;92.18
66096;SHT31;53861;53.422;14.530;2022-12-29T15:08:46;9.18;91.70
66096;SHT31;53861;53.422;14.530;2022-12-29T15:11:15;9.19;91.70
66096;SHT31;53861;53.422;14.530;2022-12-29T15:13:44;9.10;92.22
66096;SHT31;53861;53.422;14.530;2022-12-29T15:16:22;9.07;92.08
66096;SHT31;53861;53.422;14.530;2022-12-29T15:18:49;9.12;91.76
66096;SHT31;53861;53.422;14.530;2022-12-29T15:21:16;9.14;91.43
66096;SHT31;53861;53.422;14.530;2022-12-29T15:23:43;8.94;92.19
66096;SHT31;53861;53.422;14.530;2022-12-29T15:26:11;8.80;92.63
66096;SHT31;53861;53.422;14.530;2022-12-29T15:28:39;8.75;93.00
66096;SHT31;53861;53.422;14.530;2022-12-29T15:31:10;8.70;92.85
66096;SHT31;53861;53.422;14.530;2022-12-29T15:33:41;8.60;93.79
66096;SHT31;53861;53.422;14.530;2022-12-29T15:36:10;8.57;93.57
66096;SHT31;53861;53.422;14.530;2022-12-29T15:38:38;8.50;93.91
66096;SHT31;53861;53.422;14.530;2022-12-29T15:41:06;8.47;94.29
66096;SHT31;53861;53.422;14.530;2022-12-29T15:43:38;8.46;94.36
66096;SHT31;53861;53.422;14.530;2022-12-29T15:46:10;8.40;94.37
66096;SHT31;53861;53.422;14.530;2022-12-29T15:48:38;8.40;94.53
66096;SHT31;53861;53.422;14.530;2022-12-29T15:51:10;8.41;94.59
66096;SHT31;53861;53.422;14.530;2022-12-29T15:53:42;8.47;94.50